sensor_id;sensor_type;location;lat;lon;timestamp;P1;durP1;ratioP1;P2;durP2;ratioP2
3597;SDS011;1813;52.016;8.714;2022-07-29T00:00:17;5.87;;;2.47;;
3597;SDS011;1813;52.016;8.714;2022-07-29T00:02:49;8.10;;;2.63;;
3597;SDS011;1813;52.016;8.714;2022-07-29T00:05:23;3.90;;;2.13;;
3597;SDS011;1813;52.016;8.714;2022-07-29T00:07:55;8.47;;;2.70;;
3597;SDS011;1813;52.016;8.714;2022-07-29T00:10:27;10.77;;;2.37;;
3597;SDS011;1813;52.016;8.714;2022-07-29T00:12:59;9.67;;;2.33;;
3597;SDS011;1813;52.016;8.714;2022-07-29T00:15:31;9.37;;;2.40;;
3597;SDS011;1813;52.016;8.714;2022-07-29T00:18:03;5.90;;;2.50;;
3597;SDS011;1813;52.016;8.714;2022-07-29T00:20:36;5.77;;;2.20;;
3597;SDS011;1813;52.016;8.714;2022-07-29T00:23:08;5.27;;;2.00;;
3597;SDS011;1813;52.016;8.714;2022-07-29T00:25:40;10.63;;;2.37;;
3597;SDS011;1813;52.016;8.714;2022-07-29T00:28:12;9.00;;;1.97;;
3597;SDS011;1813;52.016;8.714;2022-07-29T00:30:44;7.93;;;2.27;;
3597;SDS011;1813;52.016;8.714;2022-07-29T00:33:16;4.60;;;2.00;;
3597;SDS011;1813;52.016;8.714;2022-07-29T00:35:49;5.73;;;2.27;;
3597;SDS011;1813;52.016;8.714;2022-07-29T00:38:20;6.00;;;2.33;;
3597;SDS011;1813;52.016;8.714;2022-07-29T00:40:52;7.77;;;2.30;;
3597;SDS011;1813;52.016;8.714;2022-07-29T00:43:24;2.90;;;2.30;;
3597;SDS011;1813;52.016;8.714;2022-07-29T00:45:57;5.20;;;2.40;;
3597;SDS011;1813;52.016;8.714;2022-07-29T00:48:29;7.00;;;2.43;;
3597;SDS011;1813;52.016;8.714;2022-07-29T00:51:03;8.10;;;2.33;;
3597;SDS011;1813;52.016;8.714;2022-07-29T00:53:37;12.53;;;3.10;;
3597;SDS011;1813;52.016;8.714;2022-07-29T00:56:09;3.87;;;2.13;;
3597;SDS011;1813;52.016;8.714;2022-07-29T00:58:41;8.37;;;2.40;;
3597;SDS011;1813;52.016;8.714;2022-07-29T01:01:14;3.83;;;1.90;;
3597;SDS011;1813;52.016;8.714;2022-07-29T01:03:46;7.07;;;1.97;;
3597;SDS011;1813;52.016;8.714;2022-07-29T01:06:19;12.80;;;2.10;;
3597;SDS011;1813;52.016;8.714;2022-07-29T01:08:51;5.60;;;2.40;;
3597;SDS011;1813;52.016;8.714;2022-07-29T01:11:24;8.80;;;2.20;;
3597;SDS011;1813;52.016;8.714;2022-07-29T01:13:56;3.53;;;2.00;;
3597;SDS011;1813;52.016;8.714;2022-07-29T01:16:29;6.80;;;2.90;;
3597;SDS011;1813;52.016;8.714;2022-07-29T01:19:05;6.03;;;2.10;;
3597;SDS011;1813;52.016;8.714;2022-07-29T01:21:50;7.60;;;2.50;;
3597;SDS011;1813;52.016;8.714;2022-07-29T01:27:30;3.50;;;2.30;;
3597;SDS011;1813;52.016;8.714;2022-07-29T01:30:11;4.80;;;2.50;;
3597;SDS011;1813;52.016;8.714;2022-07-29T01:32:44;3.93;;;2.30;;
3597;SDS011;1813;52.016;8.714;2022-07-29T01:35:22;4.30;;;2.30;;
3597;SDS011;1813;52.016;8.714;2022-07-29T01:37:57;5.30;;;2.50;;
3597;SDS011;1813;52.016;8.714;2022-07-29T01:40:38;4.73;;;2.53;;
3597;SDS011;1813;52.016;8.714;2022-07-29T01:43:15;5.17;;;2.47;;
3597;SDS011;1813;52.016;8.714;2022-07-29T01:45:53;6.00;;;2.63;;
3597;SDS011;1813;52.016;8.714;2022-07-29T01:48:31;4.83;;;2.03;;
3597;SDS011;1813;52.016;8.714;2022-07-29T01:51:12;4.10;;;2.30;;
3597;SDS011;1813;52.016;8.714;2022-07-29T01:53:50;9.37;;;2.40;;
3597;SDS011;1813;52.016;8.714;2022-07-29T01:56:26;6.23;;;2.70;;
3597;SDS011;1813;52.016;8.714;2022-07-29T01:59:04;4.30;;;2.37;;
3597;SDS011;1813;52.016;8.714;2022-07-29T02:01:40;5.73;;;2.33;;
3597;SDS011;1813;52.016;8.714;2022-07-29T02:04:15;4.40;;;2.40;;
3597;SDS011;1813;52.016;8.714;2022-07-29T02:06:49;3.63;;;2.43;;
3597;SDS011;1813;52.016;8.714;2022-07-29T02:09:24;6.03;;;2.00;;
3597;SDS011;1813;52.016;8.714;2022-07-29T02:11:57;10.10;;;2.10;;
3597;SDS011;1813;52.016;8.714;2022-07-29T02:14:34;9.37;;;2.50;;
3597;SDS011;1813;52.016;8.714;2022-07-29T02:17:11;4.10;;;2.37;;
3597;SDS011;1813;52.016;8.714;2022-07-29T02:19:44;8.47;;;2.47;;
3597;SDS011;1813;52.016;8.714;2022-07-29T02:22:18;11.13;;;2.40;;
3597;SDS011;1813;52.016;8.714;2022-07-29T02:24:51;9.40;;;2.73;;
3597;SDS011;1813;52.016;8.714;2022-07-29T02:27:24;13.57;;;2.70;;
3597;SDS011;1813;52.016;8.714;2022-07-29T02:30:00;6.97;;;2.30;;
3597;SDS011;1813;52.016;8.714;2022-07-29T02:32:35;4.53;;;2.40;;
3597;SDS011;1813;52.016;8.714;2022-07-29T02:35:09;7.20;;;2.27;;
3597;SDS011;1813;52.016;8.714;2022-07-29T02:37:44;6.63;;;3.20;;
3597;SDS011;1813;52.016;8.714;2022-07-29T02:40:38;9.30;;;2.60;;
3597;SDS011;1813;52.016;8.714;2022-07-29T02:43:13;4.60;;;2.63;;
3597;SDS011;1813;52.016;8.714;2022-07-29T02:45:46;5.87;;;2.50;;
3597;SDS011;1813;52.016;8.714;2022-07-29T02:48:31;12.53;;;3.07;;
3597;SDS011;1813;52.016;8.714;2022-07-29T02:51:11;4.70;;;2.70;;
3597;SDS011;1813;52.016;8.714;2022-07-29T02:53:46;7.27;;;2.70;;
3597;SDS011;1813;52.016;8.714;2022-07-29T02:56:23;3.73;;;2.37;;
3597;SDS011;1813;52.016;8.714;2022-07-29T02:58:57;8.03;;;2.40;;
3597;SDS011;1813;52.016;8.714;2022-07-29T03:01:32;6.10;;;2.37;;
3597;SDS011;1813;52.016;8.714;2022-07-29T03:04:07;7.47;;;2.67;;
3597;SDS011;1813;52.016;8.714;2022-07-29T03:06:42;6.03;;;2.47;;
3597;SDS011;1813;52.016;8.714;2022-07-29T03:09:15;11.40;;;2.60;;
3597;SDS011;1813;52.016;8.714;2022-07-29T03:11:49;5.40;;;2.30;;
3597;SDS011;1813;52.016;8.714;2022-07-29T03:14:21;7.83;;;2.60;;
3597;SDS011;1813;52.016;8.714;2022-07-29T03:16:54;4.20;;;2.30;;
3597;SDS011;1813;52.016;8.714;2022-07-29T03:19:28;7.70;;;2.33;;
3597;SDS011;1813;52.016;8.714;2022-07-29T03:22:00;3.57;;;2.50;;
3597;SDS011;1813;52.016;8.714;2022-07-29T03:24:33;4.97;;;2.80;;
3597;SDS011;1813;52.016;8.714;2022-07-29T03:27:07;4.13;;;2.60;;
3597;SDS011;1813;52.016;8.714;2022-07-29T03:29:39;11.47;;;2.60;;
3597;SDS011;1813;52.016;8.714;2022-07-29T03:32:11;7.63;;;2.50;;
3597;SDS011;1813;52.016;8.714;2022-07-29T03:34:44;10.40;;;2.70;;
3597;SDS011;1813;52.016;8.714;2022-07-29T03:37:16;8.13;;;2.57;;
3597;SDS011;1813;52.016;8.714;2022-07-29T03:39:48;9.90;;;2.93;;
3597;SDS011;1813;52.016;8.714;2022-07-29T03:42:23;3.63;;;2.20;;
3597;SDS011;1813;52.016;8.714;2022-07-29T03:44:57;6.30;;;2.93;;
3597;SDS011;1813;52.016;8.714;2022-07-29T03:47:33;5.93;;;2.90;;
3597;SDS011;1813;52.016;8.714;2022-07-29T03:50:08;6.10;;;2.47;;
3597;SDS011;1813;52.016;8.714;2022-07-29T03:52:43;6.93;;;2.50;;
3597;SDS011;1813;52.016;8.714;2022-07-29T03:55:15;8.80;;;2.40;;
3597;SDS011;1813;52.016;8.714;2022-07-29T03:57:48;5.17;;;2.43;;
3597;SDS011;1813;52.016;8.714;2022-07-29T04:00:21;4.50;;;2.53;;
3597;SDS011;1813;52.016;8.714;2022-07-29T04:02:55;3.20;;;2.43;;
3597;SDS011;1813;52.016;8.714;2022-07-29T04:05:28;10.27;;;2.60;;
3597;SDS011;1813;52.016;8.714;2022-07-29T04:08:00;6.83;;;2.80;;
3597;SDS011;1813;52.016;8.714;2022-07-29T04:10:32;5.97;;;2.30;;
3597;SDS011;1813;52.016;8.714;2022-07-29T04:13:04;4.73;;;2.87;;
3597;SDS011;1813;52.016;8.714;2022-07-29T04:15:36;9.57;;;2.57;;
3597;SDS011;1813;52.016;8.714;2022-07-29T04:18:08;6.57;;;2.30;;
3597;SDS011;1813;52.016;8.714;2022-07-29T04:20:41;6.07;;;2.80;;
3597;SDS011;1813;52.016;8.714;2022-07-29T04:23:13;12.43;;;2.77;;
3597;SDS011;1813;52.016;8.714;2022-07-29T04:25:45;5.47;;;2.60;;
3597;SDS011;1813;52.016;8.714;2022-07-29T04:28:17;3.90;;;2.90;;
3597;SDS011;1813;52.016;8.714;2022-07-29T04:30:49;8.50;;;2.60;;
3597;SDS011;1813;52.016;8.714;2022-07-29T04:33:21;6.50;;;2.63;;
3597;SDS011;1813;52.016;8.714;2022-07-29T04:35:55;9.40;;;2.77;;
3597;SDS011;1813;52.016;8.714;2022-07-29T04:38:27;9.40;;;2.73;;
3597;SDS011;1813;52.016;8.714;2022-07-29T04:40:59;2.60;;;2.40;;
3597;SDS011;1813;52.016;8.714;2022-07-29T04:43:31;4.57;;;2.57;;
3597;SDS011;1813;52.016;8.714;2022-07-29T04:46:03;2.30;;;2.10;;
3597;SDS011;1813;52.016;8.714;2022-07-29T04:48:35;15.23;;;2.87;;
3597;SDS011;1813;52.016;8.714;2022-07-29T04:51:08;10.80;;;2.73;;
3597;SDS011;1813;52.016;8.714;2022-07-29T04:53:40;13.17;;;2.60;;
3597;SDS011;1813;52.016;8.714;2022-07-29T04:56:12;4.60;;;2.83;;
3597;SDS011;1813;52.016;8.714;2022-07-29T04:58:44;8.30;;;2.33;;
3597;SDS011;1813;52.016;8.714;2022-07-29T05:01:17;5.87;;;2.30;;
3597;SDS011;1813;52.016;8.714;2022-07-29T05:03:49;5.40;;;2.90;;
3597;SDS011;1813;52.016;8.714;2022-07-29T05:06:22;6.13;;;3.00;;
3597;SDS011;1813;52.016;8.714;2022-07-29T05:08:54;8.60;;;2.70;;
3597;SDS011;1813;52.016;8.714;2022-07-29T05:11:26;14.37;;;2.90;;
3597;SDS011;1813;52.016;8.714;2022-07-29T05:13:58;7.60;;;2.70;;
3597;SDS011;1813;52.016;8.714;2022-07-29T05:16:30;10.03;;;3.17;;
3597;SDS011;1813;52.016;8.714;2022-07-29T05:19:02;6.93;;;3.07;;
3597;SDS011;1813;52.016;8.714;2022-07-29T05:21:35;8.83;;;3.00;;
3597;SDS011;1813;52.016;8.714;2022-07-29T05:24:07;13.13;;;3.20;;
3597;SDS011;1813;52.016;8.714;2022-07-29T05:26:39;17.80;;;2.77;;
3597;SDS011;1813;52.016;8.714;2022-07-29T05:29:11;9.17;;;3.20;;
3597;SDS011;1813;52.016;8.714;2022-07-29T05:31:43;11.00;;;3.10;;
3597;SDS011;1813;52.016;8.714;2022-07-29T05:34:15;7.60;;;2.60;;
3597;SDS011;1813;52.016;8.714;2022-07-29T05:36:49;9.33;;;3.07;;
3597;SDS011;1813;52.016;8.714;2022-07-29T05:39:21;5.87;;;2.87;;
3597;SDS011;1813;52.016;8.714;2022-07-29T05:41:53;15.20;;;2.77;;
3597;SDS011;1813;52.016;8.714;2022-07-29T05:44:25;4.00;;;2.57;;
3597;SDS011;1813;52.016;8.714;2022-07-29T05:46:57;6.50;;;2.53;;
3597;SDS011;1813;52.016;8.714;2022-07-29T05:49:29;4.70;;;2.60;;
3597;SDS011;1813;52.016;8.714;2022-07-29T05:52:02;8.07;;;3.07;;
3597;SDS011;1813;52.016;8.714;2022-07-29T05:54:35;18.53;;;3.00;;
3597;SDS011;1813;52.016;8.714;2022-07-29T05:57:07;5.97;;;2.30;;
3597;SDS011;1813;52.016;8.714;2022-07-29T05:59:39;8.27;;;2.40;;
3597;SDS011;1813;52.016;8.714;2022-07-29T06:02:11;7.13;;;2.60;;
3597;SDS011;1813;52.016;8.714;2022-07-29T06:04:43;7.20;;;2.87;;
3597;SDS011;1813;52.016;8.714;2022-07-29T06:07:17;9.67;;;3.00;;
3597;SDS011;1813;52.016;8.714;2022-07-29T06:09:49;9.13;;;2.93;;
3597;SDS011;1813;52.016;8.714;2022-07-29T06:12:21;11.00;;;2.77;;
3597;SDS011;1813;52.016;8.714;2022-07-29T06:14:53;5.83;;;2.50;;
3597;SDS011;1813;52.016;8.714;2022-07-29T06:17:25;5.73;;;2.30;;
3597;SDS011;1813;52.016;8.714;2022-07-29T06:19:57;3.07;;;2.43;;
3597;SDS011;1813;52.016;8.714;2022-07-29T06:22:30;5.27;;;2.10;;
3597;SDS011;1813;52.016;8.714;2022-07-29T06:25:03;5.50;;;2.50;;
3597;SDS011;1813;52.016;8.714;2022-07-29T06:27:35;5.50;;;2.80;;
3597;SDS011;1813;52.016;8.714;2022-07-29T06:30:07;5.87;;;2.30;;
3597;SDS011;1813;52.016;8.714;2022-07-29T06:32:40;11.20;;;2.90;;
3597;SDS011;1813;52.016;8.714;2022-07-29T06:35:13;4.60;;;2.40;;
3597;SDS011;1813;52.016;8.714;2022-07-29T06:37:46;5.27;;;2.53;;
3597;SDS011;1813;52.016;8.714;2022-07-29T06:40:18;7.37;;;2.70;;
3597;SDS011;1813;52.016;8.714;2022-07-29T06:43:08;12.70;;;2.87;;
3597;SDS011;1813;52.016;8.714;2022-07-29T06:45:40;7.77;;;2.90;;
3597;SDS011;1813;52.016;8.714;2022-07-29T06:48:13;10.13;;;2.50;;
3597;SDS011;1813;52.016;8.714;2022-07-29T06:50:45;4.90;;;2.40;;
3597;SDS011;1813;52.016;8.714;2022-07-29T06:53:18;6.67;;;2.53;;
3597;SDS011;1813;52.016;8.714;2022-07-29T06:55:50;9.40;;;2.50;;
3597;SDS011;1813;52.016;8.714;2022-07-29T06:58:22;6.43;;;2.43;;
3597;SDS011;1813;52.016;8.714;2022-07-29T07:01:01;7.90;;;2.40;;
3597;SDS011;1813;52.016;8.714;2022-07-29T07:03:34;11.77;;;2.40;;
3597;SDS011;1813;52.016;8.714;2022-07-29T07:06:06;6.57;;;2.53;;
3597;SDS011;1813;52.016;8.714;2022-07-29T07:08:40;9.90;;;2.30;;
3597;SDS011;1813;52.016;8.714;2022-07-29T07:11:12;7.27;;;2.60;;
3597;SDS011;1813;52.016;8.714;2022-07-29T07:13:44;9.40;;;2.33;;
3597;SDS011;1813;52.016;8.714;2022-07-29T07:16:16;4.70;;;2.20;;
3597;SDS011;1813;52.016;8.714;2022-07-29T07:18:49;2.77;;;2.30;;
3597;SDS011;1813;52.016;8.714;2022-07-29T07:21:21;4.30;;;2.20;;
3597;SDS011;1813;52.016;8.714;2022-07-29T07:23:54;5.60;;;2.50;;
3597;SDS011;1813;52.016;8.714;2022-07-29T07:26:26;6.57;;;2.50;;
3597;SDS011;1813;52.016;8.714;2022-07-29T07:28:58;5.33;;;2.90;;
3597;SDS011;1813;52.016;8.714;2022-07-29T07:31:30;5.20;;;2.17;;
3597;SDS011;1813;52.016;8.714;2022-07-29T07:34:02;10.30;;;2.37;;
3597;SDS011;1813;52.016;8.714;2022-07-29T07:36:34;7.77;;;2.10;;
3597;SDS011;1813;52.016;8.714;2022-07-29T07:39:07;6.33;;;2.53;;
3597;SDS011;1813;52.016;8.714;2022-07-29T07:41:40;9.73;;;2.27;;
3597;SDS011;1813;52.016;8.714;2022-07-29T07:44:12;4.17;;;2.27;;
3597;SDS011;1813;52.016;8.714;2022-07-29T07:46:44;7.70;;;2.20;;
3597;SDS011;1813;52.016;8.714;2022-07-29T07:49:16;11.43;;;2.73;;
3597;SDS011;1813;52.016;8.714;2022-07-29T07:51:48;6.30;;;2.30;;
3597;SDS011;1813;52.016;8.714;2022-07-29T07:54:21;6.80;;;2.37;;
3597;SDS011;1813;52.016;8.714;2022-07-29T07:56:53;4.37;;;1.87;;
3597;SDS011;1813;52.016;8.714;2022-07-29T07:59:25;8.97;;;2.30;;
3597;SDS011;1813;52.016;8.714;2022-07-29T08:01:57;8.90;;;2.57;;
3597;SDS011;1813;52.016;8.714;2022-07-29T08:04:30;7.43;;;2.50;;
3597;SDS011;1813;52.016;8.714;2022-07-29T08:07:02;3.00;;;2.10;;
3597;SDS011;1813;52.016;8.714;2022-07-29T08:09:35;4.27;;;2.30;;
3597;SDS011;1813;52.016;8.714;2022-07-29T08:12:07;5.73;;;2.20;;
3597;SDS011;1813;52.016;8.714;2022-07-29T08:14:39;5.60;;;2.30;;
3597;SDS011;1813;52.016;8.714;2022-07-29T08:17:11;4.30;;;2.33;;
3597;SDS011;1813;52.016;8.714;2022-07-29T08:19:43;5.13;;;2.23;;
3597;SDS011;1813;52.016;8.714;2022-07-29T08:22:15;13.40;;;3.30;;
3597;SDS011;1813;52.016;8.714;2022-07-29T08:24:49;20.60;;;2.60;;
3597;SDS011;1813;52.016;8.714;2022-07-29T08:27:24;9.83;;;2.40;;
3597;SDS011;1813;52.016;8.714;2022-07-29T08:29:58;12.53;;;2.47;;
3597;SDS011;1813;52.016;8.714;2022-07-29T08:32:30;7.37;;;2.30;;
3597;SDS011;1813;52.016;8.714;2022-07-29T08:35:02;5.97;;;2.23;;
3597;SDS011;1813;52.016;8.714;2022-07-29T08:37:35;6.37;;;2.23;;
3597;SDS011;1813;52.016;8.714;2022-07-29T08:40:09;4.70;;;2.17;;
3597;SDS011;1813;52.016;8.714;2022-07-29T08:42:41;4.13;;;2.10;;
3597;SDS011;1813;52.016;8.714;2022-07-29T08:45:13;10.00;;;2.53;;
3597;SDS011;1813;52.016;8.714;2022-07-29T08:47:45;4.10;;;2.10;;
3597;SDS011;1813;52.016;8.714;2022-07-29T08:50:17;4.50;;;2.17;;
3597;SDS011;1813;52.016;8.714;2022-07-29T08:52:49;7.43;;;2.20;;
3597;SDS011;1813;52.016;8.714;2022-07-29T08:55:23;10.77;;;2.30;;
3597;SDS011;1813;52.016;8.714;2022-07-29T08:57:55;4.77;;;2.30;;
3597;SDS011;1813;52.016;8.714;2022-07-29T09:00:28;8.50;;;2.40;;
3597;SDS011;1813;52.016;8.714;2022-07-29T09:03:01;3.77;;;2.27;;
3597;SDS011;1813;52.016;8.714;2022-07-29T09:05:36;2.77;;;2.10;;
3597;SDS011;1813;52.016;8.714;2022-07-29T09:08:09;10.53;;;2.20;;
3597;SDS011;1813;52.016;8.714;2022-07-29T09:10:42;8.30;;;2.40;;
3597;SDS011;1813;52.016;8.714;2022-07-29T09:13:15;8.83;;;2.10;;
3597;SDS011;1813;52.016;8.714;2022-07-29T09:15:46;10.83;;;2.80;;
3597;SDS011;1813;52.016;8.714;2022-07-29T09:18:32;4.87;;;2.17;;
3597;SDS011;1813;52.016;8.714;2022-07-29T09:21:05;7.23;;;2.30;;
3597;SDS011;1813;52.016;8.714;2022-07-29T09:24:00;5.17;;;2.10;;
3597;SDS011;1813;52.016;8.714;2022-07-29T09:26:39;6.00;;;2.10;;
3597;SDS011;1813;52.016;8.714;2022-07-29T09:29:12;6.73;;;2.30;;
3597;SDS011;1813;52.016;8.714;2022-07-29T09:31:45;5.60;;;2.20;;
3597;SDS011;1813;52.016;8.714;2022-07-29T09:34:21;8.70;;;2.50;;
3597;SDS011;1813;52.016;8.714;2022-07-29T09:36:54;3.53;;;2.03;;
3597;SDS011;1813;52.016;8.714;2022-07-29T09:39:27;7.80;;;2.47;;
3597;SDS011;1813;52.016;8.714;2022-07-29T09:42:02;3.63;;;2.30;;
3597;SDS011;1813;52.016;8.714;2022-07-29T09:44:42;6.70;;;2.50;;
3597;SDS011;1813;52.016;8.714;2022-07-29T09:47:16;5.10;;;2.23;;
3597;SDS011;1813;52.016;8.714;2022-07-29T09:49:53;7.33;;;2.50;;
3597;SDS011;1813;52.016;8.714;2022-07-29T09:52:28;7.40;;;2.50;;
3597;SDS011;1813;52.016;8.714;2022-07-29T09:55:05;8.47;;;2.50;;
3597;SDS011;1813;52.016;8.714;2022-07-29T09:57:39;3.07;;;2.40;;
3597;SDS011;1813;52.016;8.714;2022-07-29T10:00:12;19.00;;;2.90;;
3597;SDS011;1813;52.016;8.714;2022-07-29T10:02:46;5.03;;;2.43;;
3597;SDS011;1813;52.016;8.714;2022-07-29T10:05:20;11.50;;;2.60;;
3597;SDS011;1813;52.016;8.714;2022-07-29T10:07:53;7.23;;;2.97;;
3597;SDS011;1813;52.016;8.714;2022-07-29T10:10:28;5.73;;;3.00;;
3597;SDS011;1813;52.016;8.714;2022-07-29T10:13:03;7.60;;;2.97;;
3597;SDS011;1813;52.016;8.714;2022-07-29T10:15:37;10.03;;;2.80;;
3597;SDS011;1813;52.016;8.714;2022-07-29T10:18:11;10.00;;;2.70;;
3597;SDS011;1813;52.016;8.714;2022-07-29T10:20:44;9.43;;;2.83;;
3597;SDS011;1813;52.016;8.714;2022-07-29T10:23:16;9.60;;;3.00;;
3597;SDS011;1813;52.016;8.714;2022-07-29T10:25:48;8.17;;;2.53;;
3597;SDS011;1813;52.016;8.714;2022-07-29T10:28:22;8.93;;;2.97;;
3597;SDS011;1813;52.016;8.714;2022-07-29T10:31:00;9.10;;;2.80;;
3597;SDS011;1813;52.016;8.714;2022-07-29T10:33:42;7.50;;;3.10;;
3597;SDS011;1813;52.016;8.714;2022-07-29T10:36:32;6.80;;;3.00;;
3597;SDS011;1813;52.016;8.714;2022-07-29T10:39:17;8.33;;;3.30;;
3597;SDS011;1813;52.016;8.714;2022-07-29T10:41:59;6.97;;;3.40;;
3597;SDS011;1813;52.016;8.714;2022-07-29T10:44:43;10.50;;;3.03;;
3597;SDS011;1813;52.016;8.714;2022-07-29T10:47:21;6.10;;;3.10;;
3597;SDS011;1813;52.016;8.714;2022-07-29T10:49:55;11.00;;;3.43;;
3597;SDS011;1813;52.016;8.714;2022-07-29T10:55:33;5.77;;;3.33;;
3597;SDS011;1813;52.016;8.714;2022-07-29T10:58:14;6.10;;;3.20;;
3597;SDS011;1813;52.016;8.714;2022-07-29T11:00:49;13.67;;;2.90;;
3597;SDS011;1813;52.016;8.714;2022-07-29T11:06:16;30.87;;;3.40;;
3597;SDS011;1813;52.016;8.714;2022-07-29T11:11:48;8.37;;;2.80;;
3597;SDS011;1813;52.016;8.714;2022-07-29T11:17:27;7.63;;;3.03;;
3597;SDS011;1813;52.016;8.714;2022-07-29T11:23:19;8.30;;;3.10;;
3597;SDS011;1813;52.016;8.714;2022-07-29T11:28:55;8.83;;;3.20;;
3597;SDS011;1813;52.016;8.714;2022-07-29T11:31:33;9.87;;;3.13;;
3597;SDS011;1813;52.016;8.714;2022-07-29T11:34:19;4.80;;;3.10;;
3597;SDS011;1813;52.016;8.714;2022-07-29T11:40:09;10.47;;;3.43;;
3597;SDS011;1813;52.016;8.714;2022-07-29T11:42:47;8.80;;;3.77;;
3597;SDS011;1813;52.016;8.714;2022-07-29T11:45:21;9.83;;;3.27;;
3597;SDS011;1813;52.016;8.714;2022-07-29T11:47:58;5.80;;;3.40;;
3597;SDS011;1813;52.016;8.714;2022-07-29T11:50:36;7.07;;;3.40;;
3597;SDS011;1813;52.016;8.714;2022-07-29T11:53:10;7.70;;;3.50;;
3597;SDS011;1813;52.016;8.714;2022-07-29T11:55:43;6.77;;;3.50;;
3597;SDS011;1813;52.016;8.714;2022-07-29T11:58:15;25.20;;;3.13;;
3597;SDS011;1813;52.016;8.714;2022-07-29T12:00:53;8.10;;;3.07;;
3597;SDS011;1813;52.016;8.714;2022-07-29T12:03:26;9.50;;;3.37;;
3597;SDS011;1813;52.016;8.714;2022-07-29T12:06:00;8.97;;;3.30;;
3597;SDS011;1813;52.016;8.714;2022-07-29T12:08:38;8.90;;;3.10;;
3597;SDS011;1813;52.016;8.714;2022-07-29T12:11:16;6.20;;;3.20;;
3597;SDS011;1813;52.016;8.714;2022-07-29T12:13:48;6.93;;;3.07;;
3597;SDS011;1813;52.016;8.714;2022-07-29T12:16:21;8.20;;;3.23;;
3597;SDS011;1813;52.016;8.714;2022-07-29T12:18:57;5.30;;;3.10;;
3597;SDS011;1813;52.016;8.714;2022-07-29T12:21:35;9.07;;;3.57;;
3597;SDS011;1813;52.016;8.714;2022-07-29T12:24:15;10.60;;;3.50;;
3597;SDS011;1813;52.016;8.714;2022-07-29T12:26:51;10.80;;;3.70;;
3597;SDS011;1813;52.016;8.714;2022-07-29T12:29:25;14.73;;;3.80;;
3597;SDS011;1813;52.016;8.714;2022-07-29T12:31:58;8.93;;;3.47;;
3597;SDS011;1813;52.016;8.714;2022-07-29T12:34:30;6.30;;;3.03;;
3597;SDS011;1813;52.016;8.714;2022-07-29T12:37:04;12.30;;;3.40;;
3597;SDS011;1813;52.016;8.714;2022-07-29T12:39:39;11.33;;;3.30;;
3597;SDS011;1813;52.016;8.714;2022-07-29T12:42:12;12.50;;;3.47;;
3597;SDS011;1813;52.016;8.714;2022-07-29T12:44:45;10.77;;;3.43;;
3597;SDS011;1813;52.016;8.714;2022-07-29T12:47:19;4.70;;;2.83;;
3597;SDS011;1813;52.016;8.714;2022-07-29T12:50:06;9.80;;;3.40;;
3597;SDS011;1813;52.016;8.714;2022-07-29T12:52:41;6.90;;;3.60;;
3597;SDS011;1813;52.016;8.714;2022-07-29T12:55:13;14.90;;;3.30;;
3597;SDS011;1813;52.016;8.714;2022-07-29T12:57:45;8.53;;;3.03;;
3597;SDS011;1813;52.016;8.714;2022-07-29T13:00:21;5.10;;;3.40;;
3597;SDS011;1813;52.016;8.714;2022-07-29T13:02:55;18.83;;;3.50;;
3597;SDS011;1813;52.016;8.714;2022-07-29T13:05:38;7.63;;;2.87;;
3597;SDS011;1813;52.016;8.714;2022-07-29T13:08:13;8.80;;;3.10;;
3597;SDS011;1813;52.016;8.714;2022-07-29T13:10:48;12.30;;;3.20;;
3597;SDS011;1813;52.016;8.714;2022-07-29T13:13:20;7.13;;;2.60;;
3597;SDS011;1813;52.016;8.714;2022-07-29T13:16:05;5.60;;;3.10;;
3597;SDS011;1813;52.016;8.714;2022-07-29T13:18:38;7.47;;;2.70;;
3597;SDS011;1813;52.016;8.714;2022-07-29T13:21:11;6.47;;;2.90;;
3597;SDS011;1813;52.016;8.714;2022-07-29T13:23:46;13.03;;;3.17;;
3597;SDS011;1813;52.016;8.714;2022-07-29T13:26:18;13.50;;;2.93;;
3597;SDS011;1813;52.016;8.714;2022-07-29T13:28:50;11.80;;;2.97;;
3597;SDS011;1813;52.016;8.714;2022-07-29T13:31:22;8.83;;;2.60;;
3597;SDS011;1813;52.016;8.714;2022-07-29T13:33:54;7.23;;;3.03;;
3597;SDS011;1813;52.016;8.714;2022-07-29T13:36:26;8.50;;;2.63;;
3597;SDS011;1813;52.016;8.714;2022-07-29T13:39:00;32.13;;;3.33;;
3597;SDS011;1813;52.016;8.714;2022-07-29T13:41:32;15.83;;;3.10;;
3597;SDS011;1813;52.016;8.714;2022-07-29T13:44:04;15.03;;;3.10;;
3597;SDS011;1813;52.016;8.714;2022-07-29T13:46:36;8.60;;;3.10;;
3597;SDS011;1813;52.016;8.714;2022-07-29T13:49:08;5.07;;;2.70;;
3597;SDS011;1813;52.016;8.714;2022-07-29T13:51:41;10.83;;;2.90;;
3597;SDS011;1813;52.016;8.714;2022-07-29T13:54:14;10.63;;;2.83;;
3597;SDS011;1813;52.016;8.714;2022-07-29T13:56:46;12.77;;;2.77;;
3597;SDS011;1813;52.016;8.714;2022-07-29T13:59:19;6.87;;;2.87;;
3597;SDS011;1813;52.016;8.714;2022-07-29T14:01:50;8.90;;;2.77;;
3597;SDS011;1813;52.016;8.714;2022-07-29T14:04:22;10.07;;;3.00;;
3597;SDS011;1813;52.016;8.714;2022-07-29T14:06:54;14.07;;;3.20;;
3597;SDS011;1813;52.016;8.714;2022-07-29T14:09:28;15.90;;;2.63;;
3597;SDS011;1813;52.016;8.714;2022-07-29T14:12:00;7.23;;;3.00;;
3597;SDS011;1813;52.016;8.714;2022-07-29T14:14:32;10.33;;;3.10;;
3597;SDS011;1813;52.016;8.714;2022-07-29T14:17:05;7.17;;;2.70;;
3597;SDS011;1813;52.016;8.714;2022-07-29T14:19:37;7.60;;;3.33;;
3597;SDS011;1813;52.016;8.714;2022-07-29T14:22:09;7.20;;;2.63;;
3597;SDS011;1813;52.016;8.714;2022-07-29T14:24:43;31.63;;;3.27;;
3597;SDS011;1813;52.016;8.714;2022-07-29T14:27:14;19.47;;;3.10;;
3597;SDS011;1813;52.016;8.714;2022-07-29T14:29:46;9.50;;;2.60;;
3597;SDS011;1813;52.016;8.714;2022-07-29T14:32:18;10.63;;;2.87;;
3597;SDS011;1813;52.016;8.714;2022-07-29T14:34:50;7.27;;;3.40;;
3597;SDS011;1813;52.016;8.714;2022-07-29T14:37:22;11.57;;;3.20;;
3597;SDS011;1813;52.016;8.714;2022-07-29T14:39:56;18.03;;;3.37;;
3597;SDS011;1813;52.016;8.714;2022-07-29T14:42:29;18.43;;;3.53;;
3597;SDS011;1813;52.016;8.714;2022-07-29T14:45:02;34.37;;;3.63;;
3597;SDS011;1813;52.016;8.714;2022-07-29T14:47:35;23.27;;;3.37;;
3597;SDS011;1813;52.016;8.714;2022-07-29T14:50:07;31.43;;;4.00;;
3597;SDS011;1813;52.016;8.714;2022-07-29T14:52:40;51.10;;;4.60;;
3597;SDS011;1813;52.016;8.714;2022-07-29T14:55:14;21.30;;;3.53;;
3597;SDS011;1813;52.016;8.714;2022-07-29T14:57:46;21.33;;;4.07;;
3597;SDS011;1813;52.016;8.714;2022-07-29T15:00:20;17.17;;;3.20;;
3597;SDS011;1813;52.016;8.714;2022-07-29T15:02:52;47.97;;;5.00;;
3597;SDS011;1813;52.016;8.714;2022-07-29T15:05:24;61.93;;;5.27;;
3597;SDS011;1813;52.016;8.714;2022-07-29T15:07:56;61.30;;;5.70;;
3597;SDS011;1813;52.016;8.714;2022-07-29T15:10:30;28.73;;;4.67;;
3597;SDS011;1813;52.016;8.714;2022-07-29T15:13:02;23.93;;;4.23;;
3597;SDS011;1813;52.016;8.714;2022-07-29T15:15:34;22.87;;;3.87;;
3597;SDS011;1813;52.016;8.714;2022-07-29T15:18:06;19.00;;;3.50;;
3597;SDS011;1813;52.016;8.714;2022-07-29T15:20:39;11.17;;;3.43;;
3597;SDS011;1813;52.016;8.714;2022-07-29T15:23:11;8.23;;;3.20;;
3597;SDS011;1813;52.016;8.714;2022-07-29T15:25:44;12.00;;;3.00;;
3597;SDS011;1813;52.016;8.714;2022-07-29T15:28:16;10.40;;;2.80;;
3597;SDS011;1813;52.016;8.714;2022-07-29T15:30:48;12.00;;;3.03;;
3597;SDS011;1813;52.016;8.714;2022-07-29T15:33:20;6.17;;;2.93;;
3597;SDS011;1813;52.016;8.714;2022-07-29T15:35:52;12.23;;;3.20;;
3597;SDS011;1813;52.016;8.714;2022-07-29T15:38:24;8.97;;;3.17;;
3597;SDS011;1813;52.016;8.714;2022-07-29T15:40:58;14.03;;;3.50;;
3597;SDS011;1813;52.016;8.714;2022-07-29T15:43:30;13.83;;;3.50;;
3597;SDS011;1813;52.016;8.714;2022-07-29T15:46:02;10.73;;;3.03;;
3597;SDS011;1813;52.016;8.714;2022-07-29T15:48:59;10.73;;;3.20;;
3597;SDS011;1813;52.016;8.714;2022-07-29T15:51:32;17.10;;;3.30;;
3597;SDS011;1813;52.016;8.714;2022-07-29T15:54:04;16.60;;;3.70;;
3597;SDS011;1813;52.016;8.714;2022-07-29T15:56:38;8.03;;;3.57;;
3597;SDS011;1813;52.016;8.714;2022-07-29T15:59:10;16.60;;;3.93;;
3597;SDS011;1813;52.016;8.714;2022-07-29T16:01:42;15.10;;;3.57;;
3597;SDS011;1813;52.016;8.714;2022-07-29T16:04:14;12.73;;;3.50;;
3597;SDS011;1813;52.016;8.714;2022-07-29T16:06:46;12.23;;;3.70;;
3597;SDS011;1813;52.016;8.714;2022-07-29T16:09:19;25.20;;;3.97;;
3597;SDS011;1813;52.016;8.714;2022-07-29T16:11:52;13.83;;;3.70;;
3597;SDS011;1813;52.016;8.714;2022-07-29T16:14:25;15.60;;;3.90;;
3597;SDS011;1813;52.016;8.714;2022-07-29T16:16:57;16.23;;;3.83;;